Capitola, CA (95010)

4:16 PM PST on December 08, 2016 (GMT -0800)
New Brighton Middle School | | Change Station

Elev 0 ft 36.98 °N, 121.95 °W | Updated 3 minutes ago

Overcast
Overcast
57.5 °F
Feels Like 57.5 °F
N
0.0
Wind Variable Wind from SE
Gusts 0.0 mph

Today
High -- | Low -- °F
--% Chance of Precip.
Yesterday
High -- | Low -- °F
Precip. -- in
Pressure 30.16 in
Visibility 1.0 miles
Clouds Overcast 400 ft
Dew Point 57 °F
Humidity 99%
Rainfall 1.06 in
Snow Depth Not available.
7:09 AM 4:50 PM
Waxing Gibbous, 68% visible
SPECI KWVI 090001Z AUTO 00000KT 1SM -RA BR OVC004 14/14 A3016 RMK AO2 P0000 T01390139
Pressure 30.16 in
Visibility 1.0 miles
Clouds Overcast 400 ft
Dew Point 57 °F
Humidity 99%
Rainfall 1.06 in
Snow Depth Not available.
7:09 AM 4:50 PM
Waxing Gibbous, 68% visible
SPECI KWVI 090001Z AUTO 00000KT 1SM -RA BR OVC004 14/14 A3016 RMK AO2 P0000 T01390139

10-Day Weather Forecast

Almanac

Astronomy

Dec. 08, 2016 Rise Set
Actual Time
Civil Twilight
Nautical Twilight
Astronomical Twilight
Moon
Length of Visible Light
Length of Day
Tomorrow will be .
, % of the Moon is Illuminated

Today's Extremes

State Highs State Lows

Community

WunderPhotos

Upload Photos

1,956,277 photos uploaded!

WunderBlog® & News

Nearby

Air Quality

  Air Quality AQ Index Pollutant
Not available.

Snow Depth

Station Depth Elevation

Earthquake Activity

City Distance Mag. Time & Date
Minimum magnitude displayed is 2.5.

Coastal Water Temperatures

Place Temperature

Stations

Nearby Weather Stations

Station Location Temp. Windchill Dew Point Humidity Wind Precip. Elev Updated Type
                   

Watches & Warnings

There are currently no watches in effect.